createdAt,value
2022-12-13T00:01:57.954Z,100.00
2022-12-13T00:04:27.135Z,100.00
2022-12-13T00:06:54.904Z,100.00
2022-12-13T00:09:23.756Z,100.00
2022-12-13T00:11:52.349Z,100.00
2022-12-13T00:14:20.153Z,100.00
2022-12-13T00:16:50.701Z,100.00
2022-12-13T00:19:19.745Z,100.00
2022-12-13T00:21:49.091Z,100.00
2022-12-13T00:24:16.917Z,100.00
2022-12-13T00:26:46.438Z,100.00
2022-12-13T00:29:15.201Z,100.00
2022-12-13T00:31:59.416Z,100.00
2022-12-13T00:34:29.664Z,100.00
2022-12-13T00:36:59.565Z,100.00
2022-12-13T00:39:28.236Z,100.00
2022-12-13T00:41:56.500Z,100.00
2022-12-13T00:44:24.676Z,100.00
2022-12-13T00:46:54.743Z,100.00
2022-12-13T00:49:23.899Z,100.00
2022-12-13T00:51:52.683Z,100.00
2022-12-13T00:54:21.427Z,100.00
2022-12-13T00:56:51.710Z,100.00
2022-12-13T00:59:20.625Z,100.00
2022-12-13T01:01:49.635Z,100.00
2022-12-13T01:04:18.369Z,100.00
2022-12-13T01:06:50.154Z,100.00
2022-12-13T01:09:29.988Z,100.00
2022-12-13T01:12:05.962Z,100.00
2022-12-13T01:14:38.166Z,100.00
2022-12-13T01:17:08.213Z,100.00
2022-12-13T01:19:37.700Z,100.00
2022-12-13T01:22:07.967Z,100.00
2022-12-13T01:24:36.973Z,100.00
2022-12-13T01:27:05.802Z,100.00
2022-12-13T01:29:34.507Z,100.00
2022-12-13T01:32:03.198Z,100.00
2022-12-13T01:34:31.014Z,100.00
2022-12-13T01:36:59.034Z,100.00
2022-12-13T01:39:28.865Z,100.00
2022-12-13T01:41:59.994Z,100.00
2022-12-13T01:44:56.518Z,100.00
2022-12-13T01:47:49.599Z,100.00
2022-12-13T01:50:33.263Z,100.00
2022-12-13T01:53:03.282Z,100.00
2022-12-13T01:55:41.551Z,100.00
2022-12-13T01:58:09.706Z,100.00
2022-12-13T02:00:40.887Z,100.00
2022-12-13T02:03:21.459Z,100.00
2022-12-13T02:06:09.671Z,100.00
2022-12-13T02:08:39.853Z,100.00
2022-12-13T02:11:08.349Z,100.00
2022-12-13T02:13:38.900Z,100.00
2022-12-13T02:16:35.982Z,100.00
2022-12-13T02:20:00.615Z,100.00
2022-12-13T02:23:09.923Z,100.00
2022-12-13T02:26:40.787Z,100.00
2022-12-13T02:29:49.429Z,100.00
2022-12-13T02:32:38.055Z,100.00
2022-12-13T02:35:11.482Z,100.00
2022-12-13T02:38:14.333Z,100.00
2022-12-13T02:41:27.834Z,100.00
2022-12-13T02:44:21.807Z,100.00
2022-12-13T02:47:39.829Z,100.00
2022-12-13T02:50:11.364Z,100.00
2022-12-13T02:52:43.102Z,100.00
2022-12-13T02:55:16.493Z,100.00
2022-12-13T02:57:48.665Z,100.00
2022-12-13T03:00:23.860Z,100.00
2022-12-13T03:03:24.241Z,100.00
2022-12-13T03:06:33.696Z,100.00
2022-12-13T03:09:49.118Z,100.00
2022-12-13T03:13:07.182Z,100.00
2022-12-13T03:15:57.025Z,100.00
2022-12-13T03:18:30.869Z,100.00
2022-12-13T03:21:07.124Z,100.00
2022-12-13T03:23:38.176Z,100.00
2022-12-13T03:26:24.934Z,100.00
2022-12-13T03:29:03.130Z,100.00
2022-12-13T03:31:56.618Z,100.00
2022-12-13T03:34:25.417Z,100.00
2022-12-13T03:37:11.728Z,100.00
2022-12-13T03:39:40.522Z,100.00
2022-12-13T03:42:09.503Z,100.00
2022-12-13T03:44:38.201Z,100.00
2022-12-13T03:47:06.919Z,100.00
2022-12-13T03:49:35.872Z,100.00
2022-12-13T03:52:03.907Z,100.00
2022-12-13T03:54:33.420Z,100.00
2022-12-13T03:57:02.015Z,100.00
2022-12-13T03:59:29.876Z,100.00
2022-12-13T04:01:58.569Z,100.00
2022-12-13T04:04:27.255Z,100.00
2022-12-13T04:06:55.980Z,100.00
2022-12-13T04:09:24.745Z,100.00
2022-12-13T04:12:11.134Z,100.00
2022-12-13T04:14:38.890Z,100.00
2022-12-13T04:17:07.621Z,100.00
2022-12-13T04:19:37.071Z,100.00
2022-12-13T04:22:05.829Z,100.00
2022-12-13T04:24:34.594Z,100.00
2022-12-13T04:27:02.903Z,100.00
2022-12-13T04:29:33.719Z,100.00
2022-12-13T04:32:05.076Z,100.00
2022-12-13T04:34:37.538Z,100.00
2022-12-13T04:37:06.335Z,100.00
2022-12-13T04:39:35.508Z,100.00
2022-12-13T04:42:03.504Z,100.00
2022-12-13T04:44:36.819Z,100.00
2022-12-13T04:47:05.549Z,100.00
2022-12-13T04:49:35.271Z,100.00
2022-12-13T04:52:03.402Z,100.00
2022-12-13T04:54:36.063Z,100.00
2022-12-13T04:57:11.790Z,100.00
2022-12-13T04:59:40.837Z,100.00
2022-12-13T05:02:11.257Z,100.00
2022-12-13T05:04:40.075Z,100.00
2022-12-13T05:07:07.939Z,100.00
2022-12-13T05:09:36.730Z,100.00
2022-12-13T05:12:22.014Z,100.00
2022-12-13T05:14:54.046Z,100.00
2022-12-13T05:17:23.178Z,100.00
2022-12-13T05:19:52.720Z,100.00
2022-12-13T05:22:21.498Z,100.00
2022-12-13T05:24:50.609Z,100.00
2022-12-13T05:27:25.612Z,100.00
2022-12-13T05:30:02.771Z,100.00
2022-12-13T05:32:43.348Z,100.00
2022-12-13T05:35:22.262Z,100.00
2022-12-13T05:37:53.772Z,100.00
2022-12-13T05:40:27.761Z,100.00
2022-12-13T05:43:01.674Z,100.00
2022-12-13T05:45:33.745Z,100.00
2022-12-13T05:48:02.569Z,100.00
2022-12-13T05:50:31.411Z,100.00
2022-12-13T05:53:00.216Z,100.00
2022-12-13T05:55:28.933Z,100.00
2022-12-13T05:58:02.432Z,100.00
2022-12-13T06:00:31.986Z,100.00
2022-12-13T06:03:01.725Z,100.00
2022-12-13T06:05:31.295Z,100.00
2022-12-13T06:07:59.545Z,100.00
2022-12-13T06:10:35.042Z,100.00
2022-12-13T06:13:22.117Z,100.00
2022-12-13T06:16:01.972Z,100.00
2022-12-13T06:18:34.490Z,100.00
2022-12-13T06:21:07.336Z,100.00
2022-12-13T06:23:36.167Z,100.00
2022-12-13T06:26:07.588Z,100.00
2022-12-13T06:28:36.441Z,100.00
2022-12-13T06:31:05.538Z,100.00
2022-12-13T06:33:39.153Z,100.00
2022-12-13T06:36:09.024Z,100.00
2022-12-13T06:38:43.503Z,100.00
2022-12-13T06:41:16.939Z,100.00
2022-12-13T06:43:47.847Z,100.00
2022-12-13T06:46:16.936Z,100.00
2022-12-13T06:48:45.202Z,100.00
2022-12-13T06:51:13.188Z,100.00
2022-12-13T06:53:51.804Z,100.00
2022-12-13T06:56:20.578Z,100.00
2022-12-13T06:58:48.600Z,100.00
2022-12-13T07:01:24.261Z,100.00
2022-12-13T07:03:56.724Z,100.00
2022-12-13T07:06:26.400Z,100.00
2022-12-13T07:08:58.301Z,100.00
2022-12-13T07:11:33.347Z,100.00
2022-12-13T07:14:02.113Z,100.00
2022-12-13T07:16:30.121Z,100.00
2022-12-13T07:19:01.876Z,100.00
2022-12-13T07:21:32.334Z,100.00
2022-12-13T07:24:02.228Z,100.00
2022-12-13T07:26:30.099Z,100.00
2022-12-13T07:28:57.959Z,100.00
2022-12-13T07:31:26.864Z,100.00
2022-12-13T07:33:56.480Z,100.00
2022-12-13T07:36:24.873Z,100.00
2022-12-13T07:38:57.435Z,100.00
2022-12-13T07:41:27.736Z,100.00
2022-12-13T07:43:57.381Z,100.00
2022-12-13T07:46:32.525Z,99.25
2022-12-13T07:49:05.123Z,98.88
2022-12-13T07:51:35.755Z,98.46
2022-12-13T07:54:06.262Z,97.94
2022-12-13T07:56:36.484Z,98.50
2022-12-13T07:59:05.577Z,98.50
2022-12-13T08:01:35.495Z,97.65
2022-12-13T08:04:05.551Z,98.01
2022-12-13T08:06:39.572Z,97.15
2022-12-13T08:09:08.237Z,96.96
2022-12-13T08:11:37.020Z,96.88
2022-12-13T08:14:07.362Z,96.24
2022-12-13T08:16:37.022Z,96.47
2022-12-13T08:19:06.599Z,95.60
2022-12-13T08:22:01.796Z,94.71
2022-12-13T08:24:31.876Z,95.32
2022-12-13T08:27:03.440Z,95.91
2022-12-13T08:29:36.477Z,95.83
2022-12-13T08:32:10.774Z,94.59
2022-12-13T08:34:41.465Z,93.64
2022-12-13T08:37:09.712Z,93.31
2022-12-13T08:39:39.368Z,92.94
2022-12-13T08:42:19.427Z,93.33
2022-12-13T08:44:52.324Z,93.31
2022-12-13T08:47:26.881Z,92.57
2022-12-13T08:50:01.933Z,92.49
2022-12-13T08:52:40.606Z,92.16
2022-12-13T08:55:15.725Z,92.04
2022-12-13T08:57:45.664Z,91.07
2022-12-13T09:00:20.023Z,91.29
2022-12-13T09:02:49.594Z,89.34
2022-12-13T09:05:34.149Z,88.58
2022-12-13T09:08:23.123Z,89.09
2022-12-13T09:11:11.462Z,88.85
2022-12-13T09:13:52.875Z,88.09
2022-12-13T09:16:35.671Z,88.31
2022-12-13T09:19:25.467Z,87.86
2022-12-13T09:22:02.804Z,86.85
2022-12-13T09:24:35.795Z,86.54
2022-12-13T09:27:09.601Z,86.47
2022-12-13T09:29:39.699Z,86.15
2022-12-13T09:32:09.234Z,86.40
2022-12-13T09:34:39.503Z,85.63
2022-12-13T09:37:09.252Z,85.42
2022-12-13T09:39:38.771Z,84.54
2022-12-13T09:42:23.026Z,83.53
2022-12-13T09:45:05.469Z,84.43
2022-12-13T09:47:47.535Z,83.02
2022-12-13T09:50:38.511Z,81.51
2022-12-13T09:53:12.050Z,81.13
2022-12-13T09:55:52.555Z,80.74
2022-12-13T09:58:31.904Z,82.06
2022-12-13T10:01:00.709Z,81.54
2022-12-13T10:03:30.021Z,81.22
2022-12-13T10:06:09.212Z,81.50
2022-12-13T10:08:57.695Z,81.74
2022-12-13T10:11:31.384Z,81.74
2022-12-13T10:14:36.667Z,81.71
2022-12-13T10:17:09.479Z,82.16
2022-12-13T10:19:46.732Z,81.41
2022-12-13T10:22:19.915Z,79.53
2022-12-13T10:25:06.114Z,79.34
2022-12-13T10:27:45.532Z,79.04
2022-12-13T10:30:29.006Z,78.54
2022-12-13T10:33:01.512Z,78.30
2022-12-13T10:35:38.165Z,77.12
2022-12-13T10:38:16.756Z,76.77
2022-12-13T10:40:46.727Z,75.87
2022-12-13T10:43:21.168Z,75.52
2022-12-13T10:46:04.179Z,76.67
2022-12-13T10:48:41.305Z,75.03
2022-12-13T10:51:18.721Z,75.24
2022-12-13T10:53:55.415Z,75.06
2022-12-13T10:56:37.712Z,74.65
2022-12-13T10:59:38.773Z,75.01
2022-12-13T11:02:37.794Z,74.29
2022-12-13T11:05:33.464Z,75.54
2022-12-13T11:08:27.057Z,74.88
2022-12-13T11:11:04.522Z,76.05
2022-12-13T11:13:57.141Z,74.98
2022-12-13T11:16:35.649Z,74.33
2022-12-13T11:19:18.820Z,74.91
2022-12-13T11:21:50.954Z,76.57
2022-12-13T11:24:36.148Z,74.74
2022-12-13T11:28:26.636Z,75.00
2022-12-13T11:31:07.981Z,74.26
2022-12-13T11:34:42.451Z,74.01
2022-12-13T11:38:11.253Z,75.10
2022-12-13T11:40:46.740Z,73.15
2022-12-13T11:43:42.690Z,72.76
2022-12-13T11:46:20.993Z,72.18
2022-12-13T11:49:20.755Z,71.50
2022-12-13T11:52:00.177Z,73.04
2022-12-13T11:55:20.553Z,72.00
2022-12-13T11:58:16.651Z,72.27
2022-12-13T12:01:07.034Z,72.53
2022-12-13T12:03:48.330Z,72.81
2022-12-13T12:06:43.855Z,71.98
2022-12-13T12:09:19.456Z,72.91
2022-12-13T12:12:11.928Z,72.36
2022-12-13T12:15:05.185Z,72.28
2022-12-13T12:17:44.927Z,71.73
2022-12-13T12:20:40.688Z,71.92
2022-12-13T12:23:44.381Z,73.11
2022-12-13T12:26:18.718Z,70.97
2022-12-13T12:29:26.124Z,70.89
2022-12-13T12:32:20.558Z,70.22
2022-12-13T12:35:34.194Z,70.67
2022-12-13T12:38:44.657Z,71.21
2022-12-13T12:41:53.081Z,72.12
2022-12-13T12:44:34.124Z,70.91
2022-12-13T12:50:48.838Z,72.73
2022-12-13T12:54:08.449Z,71.32
2022-12-13T12:57:17.300Z,72.07
2022-12-13T13:00:21.916Z,72.05
2022-12-13T13:03:12.075Z,72.57
2022-12-13T13:06:06.899Z,73.12
2022-12-13T13:08:56.829Z,72.64
2022-12-13T13:11:31.413Z,71.75
2022-12-13T13:14:03.034Z,71.94
2022-12-13T13:16:39.626Z,72.88
2022-12-13T13:19:17.452Z,71.74
2022-12-13T13:22:01.671Z,72.46
2022-12-13T13:24:34.832Z,73.53
2022-12-13T13:27:10.376Z,71.67
2022-12-13T13:29:43.471Z,71.92
2022-12-13T13:32:28.326Z,71.66
2022-12-13T13:35:43.007Z,72.25
2022-12-13T13:38:49.934Z,72.44
2022-12-13T13:41:56.774Z,72.18
2022-12-13T13:44:45.848Z,72.54
2022-12-13T13:47:41.302Z,73.13
2022-12-13T13:50:08.992Z,73.78
2022-12-13T13:53:29.583Z,74.31
2022-12-13T13:56:32.628Z,75.02
2022-12-13T13:59:54.323Z,74.41
2022-12-13T14:03:33.171Z,75.09
2022-12-13T14:07:00.736Z,75.11
2022-12-13T14:10:19.532Z,75.45
2022-12-13T14:13:46.698Z,75.74
2022-12-13T14:16:48.694Z,76.92
2022-12-13T14:20:22.003Z,77.13
2022-12-13T14:23:21.888Z,78.26
2022-12-13T14:26:44.261Z,79.90
2022-12-13T14:29:32.176Z,81.37
2022-12-13T14:32:01.371Z,82.78
2022-12-13T14:34:34.551Z,82.59
2022-12-13T14:37:24.009Z,83.29
2022-12-13T14:39:52.834Z,84.71
2022-12-13T14:42:34.354Z,84.51
2022-12-13T14:45:37.457Z,85.34
2022-12-13T14:48:28.075Z,85.65
2022-12-13T14:50:58.580Z,86.64
2022-12-13T14:53:43.015Z,86.91
2022-12-13T14:56:28.398Z,87.32
2022-12-13T14:59:01.589Z,88.40
2022-12-13T15:01:40.642Z,88.42
2022-12-13T15:04:35.061Z,88.26
2022-12-13T15:07:28.606Z,88.22
2022-12-13T15:10:19.156Z,88.65
2022-12-13T15:12:49.390Z,88.69
2022-12-13T15:15:36.609Z,87.98
2022-12-13T15:18:13.138Z,89.87
2022-12-13T15:20:43.127Z,92.60
2022-12-13T15:23:21.476Z,94.47
2022-12-13T15:26:28.436Z,95.27
2022-12-13T15:29:10.325Z,94.19
2022-12-13T15:31:40.878Z,93.43
2022-12-13T15:34:30.615Z,95.66
2022-12-13T15:37:03.714Z,95.02
2022-12-13T15:39:41.677Z,95.95
2022-12-13T15:42:33.999Z,93.84
2022-12-13T15:45:16.152Z,92.80
2022-12-13T15:47:47.135Z,95.31
2022-12-13T15:50:50.959Z,94.71
2022-12-13T15:53:29.555Z,94.56
2022-12-13T15:56:01.189Z,93.80
2022-12-13T15:58:37.329Z,92.90
2022-12-13T16:01:06.997Z,94.45
2022-12-13T16:03:46.945Z,97.18
2022-12-13T16:06:22.885Z,98.15
2022-12-13T16:09:01.124Z,99.50
2022-12-13T16:12:01.339Z,100.00
2022-12-13T16:14:49.685Z,100.00
2022-12-13T16:17:32.074Z,99.10
2022-12-13T16:20:07.873Z,97.87
2022-12-13T16:22:39.193Z,96.52
2022-12-13T16:25:19.025Z,96.63
2022-12-13T16:27:49.283Z,99.16
2022-12-13T16:31:35.922Z,100.00
2022-12-13T16:34:07.214Z,100.00
2022-12-13T16:36:37.282Z,100.00
2022-12-13T16:39:11.219Z,100.00
2022-12-13T16:41:46.179Z,100.00
2022-12-13T16:44:37.580Z,100.00
2022-12-13T16:47:22.329Z,100.00
2022-12-13T16:49:54.145Z,100.00
2022-12-13T16:52:23.983Z,99.86
2022-12-13T16:54:53.754Z,99.35
2022-12-13T16:57:23.500Z,99.58
2022-12-13T16:59:53.819Z,100.00
2022-12-13T17:02:23.673Z,100.00
2022-12-13T17:04:53.212Z,100.00
2022-12-13T17:07:22.878Z,100.00
2022-12-13T17:09:52.446Z,100.00
2022-12-13T17:12:24.882Z,100.00
2022-12-13T17:14:55.195Z,100.00
2022-12-13T17:17:24.811Z,100.00
2022-12-13T17:19:54.753Z,100.00
2022-12-13T17:22:25.059Z,100.00
2022-12-13T17:24:54.889Z,100.00
2022-12-13T17:27:24.507Z,100.00
2022-12-13T17:29:54.172Z,100.00
2022-12-13T17:32:25.439Z,100.00
2022-12-13T17:34:56.081Z,100.00
2022-12-13T17:37:25.733Z,100.00
2022-12-13T17:39:55.313Z,100.00
2022-12-13T17:42:25.990Z,100.00
2022-12-13T17:44:55.701Z,100.00
2022-12-13T17:47:26.761Z,100.00
2022-12-13T17:49:57.317Z,100.00
2022-12-13T17:52:26.979Z,100.00
2022-12-13T17:54:56.787Z,100.00
2022-12-13T17:57:27.270Z,100.00
2022-12-13T17:59:57.843Z,100.00
2022-12-13T18:02:27.708Z,100.00
2022-12-13T18:04:57.438Z,100.00
2022-12-13T18:07:27.098Z,100.00
2022-12-13T18:09:56.830Z,100.00
2022-12-13T18:12:27.426Z,100.00
2022-12-13T18:14:57.896Z,100.00
2022-12-13T18:17:46.555Z,100.00
2022-12-13T18:20:19.290Z,100.00
2022-12-13T18:22:51.565Z,100.00
2022-12-13T18:25:21.416Z,100.00
2022-12-13T18:27:53.832Z,100.00
2022-12-13T18:30:28.261Z,100.00
2022-12-13T18:32:59.545Z,100.00
2022-12-13T18:35:30.198Z,100.00
2022-12-13T18:37:59.786Z,100.00
2022-12-13T18:40:29.323Z,100.00
2022-12-13T18:42:58.147Z,100.00
2022-12-13T18:45:26.011Z,100.00
2022-12-13T18:47:55.479Z,100.00
2022-12-13T18:50:25.602Z,100.00
2022-12-13T18:52:55.150Z,100.00
2022-12-13T18:55:25.216Z,100.00
2022-12-13T18:57:56.290Z,100.00
2022-12-13T19:00:27.062Z,100.00
2022-12-13T19:02:57.176Z,100.00
2022-12-13T19:05:27.065Z,100.00
2022-12-13T19:07:56.784Z,100.00
2022-12-13T19:10:26.825Z,100.00
2022-12-13T19:12:56.565Z,100.00
2022-12-13T19:15:26.344Z,100.00
2022-12-13T19:17:56.081Z,100.00
2022-12-13T19:20:25.952Z,100.00
2022-12-13T19:22:55.733Z,100.00
2022-12-13T19:25:25.482Z,100.00
2022-12-13T19:27:56.915Z,100.00
2022-12-13T19:30:26.903Z,100.00
2022-12-13T19:32:57.367Z,100.00
2022-12-13T19:35:27.908Z,100.00
2022-12-13T19:37:58.439Z,100.00
2022-12-13T19:40:28.606Z,100.00
2022-12-13T19:42:59.110Z,100.00
2022-12-13T19:45:29.583Z,100.00
2022-12-13T19:47:59.318Z,100.00
2022-12-13T19:50:30.883Z,100.00
2022-12-13T19:53:00.624Z,100.00
2022-12-13T19:55:31.133Z,100.00
2022-12-13T19:58:01.925Z,100.00
2022-12-13T20:00:31.633Z,100.00
2022-12-13T20:03:01.377Z,100.00
2022-12-13T20:05:31.148Z,100.00
2022-12-13T20:08:01.744Z,100.00
2022-12-13T20:10:35.249Z,100.00
2022-12-13T20:13:06.187Z,100.00
2022-12-13T20:15:36.695Z,100.00
2022-12-13T20:18:06.562Z,100.00
2022-12-13T20:21:02.424Z,100.00
2022-12-13T20:23:27.104Z,100.00
2022-12-13T20:26:08.013Z,100.00
2022-12-13T20:28:38.575Z,100.00
2022-12-13T20:31:14.683Z,100.00
2022-12-13T20:33:44.560Z,100.00
2022-12-13T20:36:24.813Z,100.00
2022-12-13T20:39:01.833Z,100.00
2022-12-13T20:41:34.725Z,100.00
2022-12-13T20:44:10.748Z,100.00
2022-12-13T20:46:40.937Z,100.00
2022-12-13T20:49:10.847Z,100.00
2022-12-13T20:51:42.194Z,100.00
2022-12-13T20:54:11.851Z,100.00
2022-12-13T20:56:41.818Z,100.00
2022-12-13T20:59:14.743Z,100.00
2022-12-13T21:01:48.834Z,100.00
2022-12-13T21:04:19.148Z,100.00
2022-12-13T21:06:49.002Z,100.00
2022-12-13T21:09:18.736Z,100.00
2022-12-13T21:11:50.366Z,100.00
2022-12-13T21:14:28.562Z,100.00
2022-12-13T21:17:09.743Z,100.00
2022-12-13T21:19:41.061Z,100.00
2022-12-13T21:22:10.764Z,100.00
2022-12-13T21:24:40.553Z,100.00
2022-12-13T21:27:10.201Z,100.00
2022-12-13T21:29:38.827Z,100.00
2022-12-13T21:32:08.647Z,100.00
2022-12-13T21:34:38.255Z,100.00
2022-12-13T21:37:06.998Z,100.00
2022-12-13T21:39:36.672Z,100.00
2022-12-13T21:42:06.222Z,100.00
2022-12-13T21:44:34.972Z,100.00
2022-12-13T21:47:13.101Z,100.00
2022-12-13T21:49:48.540Z,100.00
2022-12-13T21:52:18.612Z,100.00
2022-12-13T21:54:47.386Z,100.00
2022-12-13T21:57:35.513Z,100.00
2022-12-13T22:00:06.442Z,100.00
2022-12-13T22:02:36.117Z,100.00
2022-12-13T22:05:06.887Z,100.00
2022-12-13T22:07:35.611Z,100.00
2022-12-13T22:10:05.938Z,100.00
2022-12-13T22:12:40.888Z,100.00
2022-12-13T22:15:15.644Z,100.00
2022-12-13T22:17:45.452Z,100.00
2022-12-13T22:20:15.923Z,100.00
2022-12-13T22:22:48.652Z,100.00
2022-12-13T22:25:18.987Z,100.00
2022-12-13T22:27:47.753Z,100.00
2022-12-13T22:30:17.452Z,100.00
2022-12-13T22:32:47.137Z,100.00
2022-12-13T22:35:16.900Z,100.00
2022-12-13T22:37:50.122Z,100.00
2022-12-13T22:40:19.707Z,100.00
2022-12-13T22:42:49.286Z,100.00
2022-12-13T22:45:18.916Z,100.00
2022-12-13T22:47:47.491Z,100.00
2022-12-13T22:50:20.258Z,100.00
2022-12-13T22:52:49.789Z,100.00
2022-12-13T22:55:18.510Z,100.00
2022-12-13T22:57:48.522Z,100.00
2022-12-13T23:00:18.717Z,100.00
2022-12-13T23:02:48.592Z,100.00
2022-12-13T23:05:17.579Z,100.00
2022-12-13T23:07:48.570Z,100.00
2022-12-13T23:10:36.042Z,100.00
2022-12-13T23:13:04.789Z,100.00
2022-12-13T23:15:38.872Z,100.00
2022-12-13T23:18:08.417Z,100.00
2022-12-13T23:20:38.009Z,100.00
2022-12-13T23:23:07.604Z,100.00
2022-12-13T23:25:36.181Z,100.00
2022-12-13T23:28:05.448Z,100.00
2022-12-13T23:30:37.319Z,100.00
2022-12-13T23:33:06.107Z,100.00
2022-12-13T23:35:35.754Z,100.00
2022-12-13T23:38:05.285Z,100.00
2022-12-13T23:40:33.999Z,100.00
2022-12-13T23:43:02.567Z,100.00
2022-12-13T23:45:31.238Z,100.00
2022-12-13T23:48:00.801Z,100.00
2022-12-13T23:50:30.671Z,100.00
2022-12-13T23:53:00.159Z,100.00
2022-12-13T23:55:29.658Z,100.00
2022-12-13T23:57:58.202Z,100.00
